Time;durP1;ratioP1;P1;durP2;ratioP2;P2;SDS_P1;SDS_P2;PMS_P1;PMS_P2;Temp;Humidity;BMP_temperature;BMP_pressure;BME280_temperature;BME280_humidity;BME280_pressure;Samples;Min_cycle;Max_cycle;Signal;HPM_P1;HPM_P2
2023/02/09 00:01:11;;;;;;;60.28;32.47;;;-5.50;98.00;;;;;;5038337;28;20390;-63
2023/02/09 00:03:38;;;;;;;57.97;30.98;;;-5.60;98.00;;;;;;5038618;28;20022;-64
2023/02/09 00:06:06;;;;;;;60.33;32.40;;;-5.60;98.00;;;;;;5036197;28;20111;-63
2023/02/09 00:08:33;;;;;;;58.17;31.60;;;-5.60;98.00;;;;;;5033819;28;20037;-63
2023/02/09 00:10:58;;;;;;;61.33;33.28;;;-5.80;98.00;;;;;;5052097;28;20036;-62
2023/02/09 00:13:25;;;;;;;69.82;35.00;;;-5.90;98.00;;;;;;5041620;28;20170;-63
2023/02/09 00:15:56;;;;;;;53.78;29.80;;;-6.10;98.00;;;;;;5035327;28;20029;-63
2023/02/09 00:18:24;;;;;;;60.40;31.23;;;-6.00;98.00;;;;;;5051960;28;20104;-63
2023/02/09 00:21:01;;;;;;;58.60;30.65;;;-6.00;98.00;;;;;;5043979;28;20108;-63
2023/02/09 00:23:28;;;;;;;66.35;34.00;;;-6.10;98.00;;;;;;5050934;28;20032;-63
2023/02/09 00:25:54;;;;;;;67.45;32.47;;;-6.00;97.90;;;;;;5039440;28;20115;-63
2023/02/09 00:28:20;;;;;;;57.42;31.25;;;-6.10;98.00;;;;;;5045968;28;20037;-63
2023/02/09 00:30:45;;;;;;;66.70;32.40;;;-6.10;98.00;;;;;;5039238;28;20022;-63
2023/02/09 00:33:11;;;;;;;63.97;35.00;;;-6.20;98.00;;;;;;5039565;28;20154;-63
2023/02/09 00:35:41;;;;;;;66.35;33.70;;;-6.20;98.00;;;;;;5040435;28;20107;-63
2023/02/09 00:38:07;;;;;;;64.75;33.58;;;-6.30;98.00;;;;;;5039895;28;20314;-64
2023/02/09 00:40:32;;;;;;;69.15;34.28;;;-6.40;97.90;;;;;;5057439;28;20013;-63
2023/02/09 00:42:58;;;;;;;59.88;31.52;;;-6.60;97.30;;;;;;5049895;28;20032;-63
2023/02/09 00:45:25;;;;;;;62.85;31.63;;;-6.60;96.80;;;;;;5052643;28;20050;-63
2023/02/09 00:47:51;;;;;;;60.53;30.70;;;-6.50;96.70;;;;;;5043635;28;20091;-63
2023/02/09 00:50:16;;;;;;;62.15;30.98;;;-6.40;97.20;;;;;;5042040;28;20037;-63
2023/02/09 00:52:42;;;;;;;62.50;32.47;;;-6.40;97.50;;;;;;5048194;28;20032;-63
2023/02/09 00:55:08;;;;;;;62.13;32.75;;;-6.50;97.90;;;;;;5046707;28;20033;-64
2023/02/09 00:57:34;;;;;;;65.75;33.53;;;-6.60;97.60;;;;;;5057845;28;20108;-62
2023/02/09 01:00:00;;;;;;;65.82;33.28;;;-6.80;96.90;;;;;;5055248;28;20033;-63
2023/02/09 01:02:26;;;;;;;57.63;30.90;;;-6.90;96.60;;;;;;5057336;28;20135;-63
2023/02/09 01:04:52;;;;;;;60.88;31.38;;;-7.00;95.60;;;;;;5042209;28;20076;-63
2023/02/09 01:07:17;;;;;;;62.58;32.83;;;-7.00;95.90;;;;;;5056039;28;20090;-63
2023/02/09 01:09:43;;;;;;;68.72;34.40;;;-7.10;94.90;;;;;;5053948;28;20026;-64
2023/02/09 01:12:08;;;;;;;70.85;34.15;;;-7.00;94.50;;;;;;5057497;28;20028;-63
2023/02/09 01:14:34;;;;;;;65.97;31.30;;;-7.10;94.60;;;;;;5047067;28;20023;-63
2023/02/09 01:16:59;;;;;;;65.22;32.45;;;-7.20;94.80;;;;;;5048293;28;20033;-63
2023/02/09 01:19:25;;;;;;;59.40;30.60;;;-7.30;94.60;;;;;;5041632;28;20065;-64
2023/02/09 01:21:51;;;;;;;64.72;33.38;;;-7.40;94.90;;;;;;5040698;28;20038;-63
2023/02/09 01:24:17;;;;;;;64.43;32.83;;;-7.40;93.20;;;;;;5056385;28;20360;-63
2023/02/09 01:26:42;;;;;;;59.58;32.05;;;-7.40;93.90;;;;;;5047495;28;20045;-63
2023/02/09 01:29:12;;;;;;;63.67;31.63;;;-7.50;94.20;;;;;;5051830;28;20029;-63
2023/02/09 01:31:38;;;;;;;62.53;30.00;;;-7.60;94.60;;;;;;5046049;28;20317;-63
2023/02/09 01:34:04;;;;;;;67.10;34.72;;;-7.60;92.30;;;;;;5053596;28;20119;-63
2023/02/09 01:36:31;;;;;;;78.20;38.20;;;-7.50;92.70;;;;;;5050182;28;20083;-63
2023/02/09 01:38:59;;;;;;;69.05;35.40;;;-7.50;93.00;;;;;;5048356;28;20029;-63
2023/02/09 01:41:26;;;;;;;65.18;33.58;;;-7.40;90.90;;;;;;5057852;28;20051;-63
2023/02/09 01:44:06;;;;;;;68.13;34.00;;;-7.30;91.80;;;;;;5051865;28;20033;-63
2023/02/09 01:46:34;;;;;;;70.40;34.85;;;-7.30;91.80;;;;;;5046487;28;20037;-63
2023/02/09 01:49:10;;;;;;;70.93;35.20;;;-7.00;91.30;;;;;;5044692;28;20035;-62
2023/02/09 01:51:43;;;;;;;69.57;35.03;;;-6.80;92.20;;;;;;5039677;28;20033;-62
2023/02/09 01:54:17;;;;;;;67.55;34.53;;;-6.80;93.20;;;;;;5040432;28;20431;-62
2023/02/09 01:56:46;;;;;;;72.63;35.53;;;-6.70;92.90;;;;;;5047431;28;20354;-62
2023/02/09 01:59:14;;;;;;;69.97;34.15;;;-6.50;93.80;;;;;;5038139;28;20021;-65
2023/02/09 02:01:40;;;;;;;67.28;35.63;;;-6.40;94.70;;;;;;5044798;28;20017;-64
2023/02/09 02:04:06;;;;;;;66.18;32.92;;;-6.30;95.00;;;;;;5057148;28;20025;-63
2023/02/09 02:06:32;;;;;;;69.57;33.80;;;-6.10;96.20;;;;;;5045877;28;20029;-64
2023/02/09 02:09:02;;;;;;;63.55;33.95;;;-6.10;97.00;;;;;;5048263;28;20087;-63
2023/02/09 02:11:28;;;;;;;65.35;34.30;;;-6.00;96.70;;;;;;5043210;28;20033;-63
2023/02/09 02:13:55;;;;;;;60.80;32.90;;;-5.90;98.00;;;;;;5046565;28;20033;-63
2023/02/09 02:16:44;;;;;;;59.33;30.75;;;-5.90;98.00;;;;;;5041838;28;20407;-63
2023/02/09 02:19:31;;;;;;;65.55;34.00;;;-6.00;98.00;;;;;;5052419;28;20025;-63
2023/02/09 02:22:15;;;;;;;62.53;33.05;;;-6.10;98.00;;;;;;5053193;28;20087;-63
2023/02/09 02:24:49;;;;;;;63.72;33.63;;;-6.00;97.60;;;;;;5053868;28;20116;-63
2023/02/09 02:27:23;;;;;;;64.43;33.03;;;-5.80;98.00;;;;;;5039559;28;20500;-63
2023/02/09 02:33:48;;;;;;;62.05;33.17;;;-5.90;98.00;;;;;;5057642;28;20078;-63
2023/02/09 02:36:34;;;;;;;61.35;30.38;;;-6.10;98.00;;;;;;5050563;28;20087;-63
2023/02/09 02:39:10;;;;;;;66.88;34.90;;;-6.30;98.00;;;;;;5049858;28;20063;-63
2023/02/09 02:44:38;;;;;;;62.00;33.25;;;-6.30;97.80;;;;;;5052130;28;20784;-63
2023/02/09 02:47:07;;;;;;;64.30;33.35;;;-6.20;97.90;;;;;;5038177;28;20025;-63
2023/02/09 02:49:52;;;;;;;68.85;35.08;;;-6.20;98.00;;;;;;5052345;28;20139;-62
2023/02/09 02:52:17;;;;;;;62.92;32.83;;;-6.30;98.00;;;;;;5052442;28;20126;-63
2023/02/09 02:55:12;;;;;;;66.13;33.05;;;-6.40;97.70;;;;;;5046088;28;20441;-62
2023/02/09 02:57:41;;;;;;;70.30;35.42;;;-6.50;98.00;;;;;;5037084;28;20038;-63
2023/02/09 03:00:13;;;;;;;58.25;30.95;;;-6.60;98.00;;;;;;5043824;28;20032;-63
2023/02/09 03:02:52;;;;;;;71.10;34.88;;;-6.80;98.00;;;;;;5040600;28;20036;-63
2023/02/09 03:05:21;;;;;;;64.80;34.55;;;-6.90;97.80;;;;;;5055921;28;20032;-63
2023/02/09 03:07:47;;;;;;;65.35;35.22;;;-6.90;97.50;;;;;;5047976;28;20032;-63
2023/02/09 03:10:41;;;;;;;69.82;36.22;;;-7.00;97.20;;;;;;5054988;28;20322;-63
2023/02/09 03:13:20;;;;;;;67.15;34.92;;;-7.20;96.40;;;;;;5044304;28;20120;-63
2023/02/09 03:16:00;;;;;;;68.20;33.85;;;-7.20;95.60;;;;;;5052065;28;20377;-63
2023/02/09 03:18:35;;;;;;;69.50;35.78;;;-7.30;95.30;;;;;;5043371;28;20021;-62
2023/02/09 03:21:17;;;;;;;67.85;34.50;;;-7.30;95.10;;;;;;5046813;28;20083;-63
2023/02/09 03:23:53;;;;;;;71.78;36.25;;;-7.30;94.90;;;;;;5049981;28;20041;-63
2023/02/09 03:26:26;;;;;;;73.30;36.45;;;-7.30;94.10;;;;;;5048397;28;20406;-63
2023/02/09 03:28:55;;;;;;;72.43;35.88;;;-7.20;93.50;;;;;;5046981;28;20025;-63
2023/02/09 03:31:22;;;;;;;75.35;37.17;;;-7.20;93.60;;;;;;5053368;28;20321;-63
2023/02/09 03:33:49;;;;;;;78.93;38.50;;;-7.10;93.20;;;;;;5045514;28;20426;-63
2023/02/09 03:36:17;;;;;;;72.35;36.42;;;-7.10;93.90;;;;;;5041196;28;20032;-63
2023/02/09 03:38:42;;;;;;;76.13;37.80;;;-7.10;94.60;;;;;;5040901;28;20433;-63
2023/02/09 03:41:08;;;;;;;72.65;37.15;;;-7.20;94.00;;;;;;5044000;28;20017;-63
2023/02/09 03:46:18;;;;;;;;;;;-7.10;92.90;;;;;;5048262;28;20090;-63
2023/02/09 03:48:44;;;;;;;78.43;39.00;;;-7.10;92.70;;;;;;5049308;28;19905;-63
2023/02/09 03:51:09;;;;;;;75.68;38.22;;;-7.00;92.50;;;;;;5050590;28;20033;-63
2023/02/09 03:53:35;;;;;;;76.72;38.50;;;-6.90;93.70;;;;;;5051916;28;20111;-63
2023/02/09 03:56:03;;;;;;;73.70;38.67;;;-6.90;94.60;;;;;;5056197;28;20036;-63
2023/02/09 03:58:30;;;;;;;75.43;37.80;;;-6.90;94.50;;;;;;5056146;28;20025;-63
2023/02/09 04:01:08;;;;;;;75.40;37.92;;;-6.80;94.00;;;;;;5044124;28;20251;-63
2023/02/09 04:03:34;;;;;;;70.40;36.72;;;-6.80;94.80;;;;;;5044353;28;20489;-63
2023/02/09 04:05:59;;;;;;;63.72;35.08;;;-6.90;95.20;;;;;;5036865;28;20034;-63
2023/02/09 04:08:26;;;;;;;79.25;38.20;;;-7.10;94.50;;;;;;5036226;28;20292;-63
2023/02/09 04:10:51;;;;;;;76.53;37.83;;;-7.10;94.90;;;;;;5046499;28;20086;-63
2023/02/09 04:13:17;;;;;;;77.57;37.85;;;-7.30;95.00;;;;;;5042925;28;20426;-63
2023/02/09 04:15:42;;;;;;;63.85;34.03;;;-7.50;94.60;;;;;;5034601;28;20303;-63
2023/02/09 04:18:09;;;;;;;72.38;36.90;;;-7.60;94.70;;;;;;5043703;28;20032;-63
2023/02/09 04:20:34;;;;;;;73.88;35.70;;;-7.70;94.60;;;;;;5042184;28;20025;-62
2023/02/09 04:23:00;;;;;;;79.45;38.67;;;-7.80;94.00;;;;;;5043560;28;20029;-63
2023/02/09 04:25:25;;;;;;;82.32;40.10;;;-7.70;92.70;;;;;;5050405;28;20103;-63
2023/02/09 04:27:51;;;;;;;72.72;36.35;;;-7.80;93.40;;;;;;5061018;28;20485;-63
2023/02/09 04:30:16;;;;;;;73.07;37.97;;;-7.90;92.60;;;;;;5042497;28;20048;-63
2023/02/09 04:32:44;;;;;;;82.45;41.47;;;-7.90;92.70;;;;;;5047660;28;20052;-62
2023/02/09 04:35:10;;;;;;;75.82;38.63;;;-7.90;91.90;;;;;;5048650;28;20025;-63
2023/02/09 04:37:35;;;;;;;84.50;41.20;;;-7.80;90.80;;;;;;5042705;28;20322;-63
2023/02/09 04:40:01;;;;;;;79.88;41.45;;;-7.60;90.30;;;;;;5039767;28;20025;-63
2023/02/09 04:42:27;;;;;;;94.90;44.17;;;-7.50;90.50;;;;;;5045063;28;20025;-62
2023/02/09 04:44:52;;;;;;;85.43;43.00;;;-7.40;90.60;;;;;;5049520;28;20033;-62
2023/02/09 04:47:18;;;;;;;87.13;43.13;;;-7.30;90.10;;;;;;5056055;28;20165;-62
2023/02/09 04:49:43;;;;;;;80.00;40.67;;;-7.30;90.40;;;;;;5060888;28;20425;-62
2023/02/09 04:52:09;;;;;;;86.35;43.33;;;-7.30;91.20;;;;;;5047736;28;20036;-65
2023/02/09 04:54:35;;;;;;;79.80;40.85;;;-7.30;91.80;;;;;;5045792;28;20083;-64
2023/02/09 04:59:44;;;;;;;83.07;41.55;;;-7.30;93.20;;;;;;5033484;28;20024;-64
2023/02/09 05:02:11;;;;;;;85.07;41.40;;;-7.30;93.50;;;;;;5044814;28;20037;-63
2023/02/09 05:04:36;;;;;;;80.20;40.20;;;-7.30;93.80;;;;;;5046995;28;20029;-63
2023/02/09 05:07:02;;;;;;;83.22;41.65;;;-7.40;94.00;;;;;;5053076;28;20345;-63
2023/02/09 05:09:28;;;;;;;84.35;42.08;;;-7.40;93.70;;;;;;5041937;28;20098;-63
2023/02/09 05:11:53;;;;;;;86.75;41.05;;;-7.40;93.30;;;;;;5052365;28;20375;-64
2023/02/09 05:14:19;;;;;;;86.80;42.42;;;-7.40;93.40;;;;;;5043831;28;20065;-64
2023/02/09 05:16:47;;;;;;;89.10;43.83;;;-7.40;93.40;;;;;;5050527;28;20321;-64
2023/02/09 05:19:13;;;;;;;88.20;43.42;;;-7.50;93.40;;;;;;5054103;28;20100;-64
2023/02/09 05:21:38;;;;;;;87.18;43.50;;;-7.50;92.80;;;;;;5052754;28;20049;-63
2023/02/09 05:24:07;;;;;;;75.78;39.35;;;-7.50;93.00;;;;;;5044138;28;20033;-63
2023/02/09 05:26:34;;;;;;;78.70;41.10;;;-7.50;93.30;;;;;;5053544;28;20148;-64
2023/02/09 05:28:59;;;;;;;82.47;41.03;;;-7.50;93.70;;;;;;5057990;28;20039;-63
2023/02/09 05:31:25;;;;;;;88.88;41.72;;;-7.50;94.00;;;;;;5048007;28;20029;-63
2023/02/09 05:33:50;;;;;;;75.60;38.47;;;-7.60;94.00;;;;;;5054487;28;20036;-63
2023/02/09 05:36:16;;;;;;;81.25;40.80;;;-7.60;94.00;;;;;;5048696;28;20112;-63
2023/02/09 05:38:41;;;;;;;86.22;42.50;;;-7.60;93.30;;;;;;5043081;28;20302;-63
2023/02/09 05:41:09;;;;;;;82.45;39.22;;;-7.60;93.70;;;;;;5051420;28;20410;-63
2023/02/09 05:43:35;;;;;;;90.53;43.22;;;-7.60;94.30;;;;;;5041248;28;20388;-62
2023/02/09 05:46:01;;;;;;;80.05;40.67;;;-7.70;95.00;;;;;;5048744;28;20104;-63
2023/02/09 05:48:26;;;;;;;86.20;41.17;;;-7.70;94.90;;;;;;5045208;28;20112;-62
2023/02/09 05:50:52;;;;;;;90.10;42.97;;;-7.80;94.80;;;;;;5046562;28;20033;-63
2023/02/09 05:53:17;;;;;;;79.95;39.97;;;-7.80;94.50;;;;;;5042433;28;20389;-63
2023/02/09 05:55:44;;;;;;;91.75;44.47;;;-7.80;93.70;;;;;;5051778;28;20083;-63
2023/02/09 05:58:10;;;;;;;88.18;40.80;;;-7.70;93.10;;;;;;5039830;28;20113;-63
2023/02/09 06:00:35;;;;;;;81.22;40.22;;;-7.70;94.30;;;;;;5042258;28;20117;-63
2023/02/09 06:03:01;;;;;;;91.70;43.25;;;-7.70;94.30;;;;;;5053344;28;20033;-62
2023/02/09 06:05:28;;;;;;;86.35;41.85;;;-7.70;94.20;;;;;;5042444;28;20038;-63
2023/02/09 06:07:54;;;;;;;81.68;42.08;;;-7.80;94.40;;;;;;5046398;28;20025;-63
2023/02/09 06:10:20;;;;;;;79.75;40.17;;;-7.80;94.60;;;;;;5042850;28;20045;-63
2023/02/09 06:12:45;;;;;;;83.80;41.78;;;-7.80;94.40;;;;;;5054608;28;20029;-63
2023/02/09 06:15:12;;;;;;;86.55;43.58;;;-7.80;93.70;;;;;;5057100;28;20307;-63
2023/02/09 06:17:37;;;;;;;92.82;44.88;;;-7.70;93.30;;;;;;5058074;28;20024;-62
2023/02/09 06:20:03;;;;;;;91.88;42.47;;;-7.70;93.20;;;;;;5058213;28;20437;-63
2023/02/09 06:22:30;;;;;;;81.75;41.13;;;-7.60;93.10;;;;;;5043453;28;20064;-63
2023/02/09 06:24:56;;;;;;;90.13;44.05;;;-7.60;93.30;;;;;;5037976;28;20049;-63
2023/02/09 06:27:22;;;;;;;91.25;43.60;;;-7.60;94.00;;;;;;5038128;28;20096;-62
2023/02/09 06:29:48;;;;;;;85.68;42.30;;;-7.60;94.40;;;;;;5036779;28;20524;-63
2023/02/09 06:32:14;;;;;;;84.25;42.75;;;-7.60;93.60;;;;;;5039715;28;20081;-63
2023/02/09 06:34:39;;;;;;;90.82;43.05;;;-7.60;94.30;;;;;;5041292;28;20040;-63
2023/02/09 06:37:05;;;;;;;88.15;44.08;;;-7.50;94.70;;;;;;5056091;28;20584;-63
2023/02/09 06:39:30;;;;;;;105.72;47.33;;;-7.50;94.60;;;;;;5057891;28;20424;-63
2023/02/09 06:41:56;;;;;;;83.72;41.60;;;-7.50;94.40;;;;;;5048172;28;20087;-62
2023/02/09 06:44:21;;;;;;;86.97;43.17;;;-7.50;94.60;;;;;;5043447;28;20094;-62
2023/02/09 06:46:47;;;;;;;86.70;40.88;;;-7.50;95.70;;;;;;5057661;28;20033;-64
2023/02/09 06:49:12;;;;;;;90.38;43.38;;;-7.50;95.70;;;;;;5047554;28;20030;-62
2023/02/09 06:51:38;;;;;;;87.22;43.97;;;-7.50;95.70;;;;;;5044778;28;20039;-63
2023/02/09 06:54:04;;;;;;;88.22;44.13;;;-7.50;95.70;;;;;;5052734;28;20041;-63
2023/02/09 06:56:29;;;;;;;93.55;45.35;;;-7.50;95.60;;;;;;5056090;28;20041;-63
2023/02/09 06:58:55;;;;;;;89.95;43.70;;;-7.50;95.90;;;;;;5065360;28;20036;-63
2023/02/09 07:01:20;;;;;;;86.32;42.90;;;-7.50;95.70;;;;;;5054666;28;20038;-62
2023/02/09 07:03:46;;;;;;;91.35;42.90;;;-7.50;95.30;;;;;;5057411;28;20150;-63
2023/02/09 07:06:17;;;;;;;99.00;45.30;;;-7.40;95.00;;;;;;5044132;28;20055;-63
2023/02/09 07:08:44;;;;;;;87.93;43.38;;;-7.40;94.90;;;;;;5041753;28;20521;-63
2023/02/09 07:11:13;;;;;;;85.90;42.08;;;-7.30;95.10;;;;;;5050883;28;20029;-63
2023/02/09 07:13:38;;;;;;;86.85;44.17;;;-7.30;95.60;;;;;;5050510;28;20124;-63
2023/02/09 07:16:05;;;;;;;85.90;40.85;;;-7.30;96.50;;;;;;5035838;28;20087;-63
2023/02/09 07:18:31;;;;;;;83.53;40.38;;;-7.20;95.70;;;;;;5037232;28;20108;-63
2023/02/09 07:21:01;;;;;;;87.15;40.50;;;-7.10;96.70;;;;;;5039099;28;20034;-63
2023/02/09 07:23:27;;;;;;;92.60;43.67;;;-7.20;97.00;;;;;;5042815;28;20022;-63
2023/02/09 07:25:53;;;;;;;108.93;57.22;;;-7.20;96.80;;;;;;5054291;28;20060;-63
2023/02/09 07:28:19;;;;;;;108.57;53.75;;;-7.20;96.90;;;;;;5056859;28;20032;-63
2023/02/09 07:30:48;;;;;;;110.90;55.22;;;-7.20;97.20;;;;;;5055433;28;20108;-63
2023/02/09 07:33:14;;;;;;;102.85;52.15;;;-7.30;97.50;;;;;;5055244;28;20086;-63
2023/02/09 07:35:43;;;;;;;93.07;47.50;;;-7.30;96.70;;;;;;5056814;28;20044;-63
2023/02/09 07:38:09;;;;;;;88.47;45.15;;;-7.30;96.30;;;;;;5048901;28;20036;-63
2023/02/09 07:40:38;;;;;;;86.78;44.35;;;-7.30;96.50;;;;;;5040242;28;20109;-63
2023/02/09 07:43:05;;;;;;;81.25;38.90;;;-7.20;96.60;;;;;;5048339;28;20025;-63
2023/02/09 07:45:31;;;;;;;80.78;39.53;;;-7.20;97.00;;;;;;5042285;28;20107;-63
2023/02/09 07:48:02;;;;;;;83.65;40.67;;;-7.10;97.00;;;;;;5055295;28;20075;-63
2023/02/09 07:50:27;;;;;;;83.25;39.67;;;-7.00;97.50;;;;;;5047334;28;20035;-63
2023/02/09 07:52:54;;;;;;;89.22;42.53;;;-6.90;97.70;;;;;;5055332;28;20028;-63
2023/02/09 07:55:20;;;;;;;87.80;41.78;;;-6.80;98.00;;;;;;5045167;28;20120;-62
2023/02/09 07:57:46;;;;;;;83.65;40.50;;;-6.70;98.00;;;;;;5045916;28;20039;-63
2023/02/09 08:00:12;;;;;;;86.75;41.28;;;-6.60;98.00;;;;;;5049524;28;20104;-63
2023/02/09 08:02:38;;;;;;;76.35;39.97;;;-6.40;98.00;;;;;;5040239;28;20036;-65
2023/02/09 08:05:08;;;;;;;73.65;37.83;;;-6.30;98.00;;;;;;5052637;28;20032;-65
2023/02/09 08:07:33;;;;;;;77.30;38.55;;;-6.20;98.00;;;;;;5046189;28;20035;-64
2023/02/09 08:09:59;;;;;;;82.18;40.72;;;-6.10;98.00;;;;;;5049482;28;20026;-64
2023/02/09 08:15:14;;;;;;;79.78;39.58;;;-5.80;98.00;;;;;;5047794;28;20118;-63
2023/02/09 08:17:39;;;;;;;77.95;38.78;;;-5.60;98.00;;;;;;5042722;28;20120;-64
2023/02/09 08:20:07;;;;;;;63.67;33.95;;;-5.30;98.00;;;;;;5043192;28;20034;-64
2023/02/09 08:22:38;;;;;;;64.68;35.63;;;-4.00;98.00;;;;;;5042036;28;20025;-64
2023/02/09 08:25:05;;;;;;;71.45;38.47;;;-2.50;98.00;;;;;;5035724;28;20099;-64
2023/02/09 08:27:30;;;;;;;60.55;33.05;;;-1.30;98.00;;;;;;5048219;28;20029;-64
2023/02/09 08:29:58;;;;;;;63.17;35.95;;;-0.90;96.00;;;;;;5046039;28;20033;-64
2023/02/09 08:32:23;;;;;;;53.47;30.75;;;-1.20;93.00;;;;;;5045770;28;20437;-64
2023/02/09 08:34:52;;;;;;;53.97;31.00;;;-1.60;93.50;;;;;;5037280;28;20037;-64
2023/02/09 08:37:17;;;;;;;54.10;31.23;;;-2.00;93.80;;;;;;5045288;28;20024;-63
2023/02/09 08:39:46;;;;;;;58.47;33.08;;;-2.50;95.00;;;;;;5047805;28;20094;-64
2023/02/09 08:42:11;;;;;;;62.10;34.45;;;-2.70;96.80;;;;;;5053708;28;20040;-63
2023/02/09 08:44:37;;;;;;;57.35;32.95;;;-2.70;97.70;;;;;;5052752;28;20021;-64
2023/02/09 08:47:02;;;;;;;58.03;34.42;;;-2.70;98.00;;;;;;5054626;28;20291;-64
2023/02/09 08:49:28;;;;;;;55.42;31.63;;;-2.40;98.00;;;;;;5026768;28;20029;-64
2023/02/09 08:51:53;;;;;;;49.92;29.35;;;-1.30;98.00;;;;;;5023518;28;20128;-64
2023/02/09 08:54:19;;;;;;;46.03;27.38;;;0.70;98.00;;;;;;5023688;28;20064;-64
2023/02/09 08:56:45;;;;;;;43.60;25.48;;;2.30;95.20;;;;;;5022174;28;20049;-64
2023/02/09 08:59:13;;;;;;;40.92;25.48;;;3.30;91.30;;;;;;5024930;28;20524;-64
2023/02/09 09:01:39;;;;;;;43.55;24.60;;;4.30;89.50;;;;;;5024369;28;20025;-64
2023/02/09 09:04:06;;;;;;;38.38;24.13;;;5.50;87.70;;;;;;5026362;28;20318;-64
2023/02/09 09:06:32;;;;;;;39.97;24.52;;;5.90;82.30;;;;;;5032487;28;20056;-64
2023/02/09 09:08:57;;;;;;;38.45;23.75;;;6.70;82.20;;;;;;5024632;28;20041;-64
2023/02/09 09:11:23;;;;;;;36.95;23.23;;;7.20;80.70;;;;;;5026089;28;20326;-64
2023/02/09 09:13:48;;;;;;;34.13;22.02;;;8.10;78.40;;;;;;5027271;28;20037;-65
2023/02/09 09:16:19;;;;;;;35.83;22.63;;;9.10;75.70;;;;;;5029460;28;20037;-64
2023/02/09 09:18:46;;;;;;;32.60;21.67;;;9.30;68.40;;;;;;5024029;28;20033;-65
2023/02/09 09:21:13;;;;;;;33.47;22.33;;;9.70;68.40;;;;;;5039492;28;20021;-63
2023/02/09 09:23:38;;;;;;;34.03;22.38;;;10.20;66.90;;;;;;5039670;28;20420;-63
2023/02/09 09:26:04;;;;;;;34.38;23.02;;;10.00;64.60;;;;;;5035910;28;20041;-64
2023/02/09 09:28:30;;;;;;;36.38;23.92;;;10.30;63.10;;;;;;5046196;28;20040;-63
2023/02/09 09:30:58;;;;;;;34.47;23.25;;;9.50;61.20;;;;;;5037574;28;20025;-63
2023/02/09 09:33:24;;;;;;;33.33;22.50;;;10.10;61.80;;;;;;5050504;28;20032;-63
2023/02/09 09:35:49;;;;;;;44.70;28.30;;;9.70;60.70;;;;;;5039073;28;20029;-63
2023/02/09 09:38:15;;;;;;;39.10;25.02;;;9.60;61.40;;;;;;5044866;28;20308;-63
2023/02/09 09:40:44;;;;;;;45.08;27.75;;;9.30;60.70;;;;;;5035686;28;20425;-63
2023/02/09 09:43:39;;;;;;;46.40;28.05;;;7.90;62.80;;;;;;5038207;28;20037;-63
2023/02/09 09:46:10;;;;;;;42.55;27.58;;;7.20;64.70;;;;;;5030224;28;20120;-63
2023/02/09 09:48:39;;;;;;;46.20;28.20;;;7.00;65.00;;;;;;5033012;28;20034;-64
2023/02/09 09:51:37;;;;;;;44.17;26.35;;;6.80;65.80;;;;;;5042397;28;20037;-63
2023/02/09 09:54:06;;;;;;;39.83;25.63;;;6.70;67.50;;;;;;5035922;28;20049;-63
2023/02/09 09:56:32;;;;;;;40.17;24.65;;;6.50;66.60;;;;;;5037159;28;20052;-63
2023/02/09 09:58:59;;;;;;;43.28;26.30;;;6.20;68.00;;;;;;5044180;28;20043;-63
2023/02/09 10:01:29;;;;;;;41.50;25.10;;;6.00;68.70;;;;;;5035275;28;20140;-63
2023/02/09 10:04:01;;;;;;;40.63;26.33;;;6.00;68.70;;;;;;5036063;28;20040;-63
2023/02/09 10:06:30;;;;;;;39.83;25.40;;;5.60;68.90;;;;;;5038116;28;20418;-63
2023/02/09 10:09:03;;;;;;;40.95;25.83;;;5.50;70.50;;;;;;5052926;28;20036;-63
2023/02/09 10:11:41;;;;;;;45.70;26.27;;;5.70;69.80;;;;;;5037551;28;20034;-63
2023/02/09 10:14:08;;;;;;;45.67;25.40;;;5.40;70.00;;;;;;5044843;28;20043;-63
2023/02/09 10:16:36;;;;;;;42.00;26.02;;;5.30;70.50;;;;;;5049629;28;20445;-63
2023/02/09 10:19:29;;;;;;;41.17;25.35;;;5.10;70.40;;;;;;5041309;28;20491;-63
2023/02/09 10:21:55;;;;;;;41.40;25.27;;;5.10;71.90;;;;;;5048367;28;20172;-63
2023/02/09 10:24:20;;;;;;;39.53;24.48;;;5.60;70.70;;;;;;5052524;28;20116;-64
2023/02/09 10:27:19;;;;;;;40.42;25.65;;;5.90;70.30;;;;;;5054921;28;20697;-63
2023/02/09 10:29:45;;;;;;;37.38;24.33;;;5.90;69.90;;;;;;5052727;28;20029;-63
2023/02/09 10:32:10;;;;;;;40.90;25.73;;;5.80;69.30;;;;;;5036891;28;20029;-63
2023/02/09 10:34:44;;;;;;;47.00;27.52;;;5.90;69.80;;;;;;5038289;28;20033;-63
2023/02/09 10:37:34;;;;;;;49.08;26.27;;;6.00;70.30;;;;;;5037166;28;20030;-64
2023/02/09 10:40:21;;;;;;;41.95;25.05;;;6.10;69.70;;;;;;5040013;28;20040;-63
2023/02/09 10:43:01;;;;;;;47.58;28.27;;;6.20;68.80;;;;;;5037346;28;20029;-63
2023/02/09 10:45:37;;;;;;;48.65;28.80;;;6.10;67.90;;;;;;5043597;28;20028;-63
2023/02/09 10:48:11;;;;;;;47.25;28.77;;;5.90;69.00;;;;;;5044382;28;20052;-62
2023/02/09 10:51:06;;;;;;;49.15;28.65;;;6.00;69.10;;;;;;5045558;28;20099;-62
2023/02/09 10:53:55;;;;;;;46.65;28.70;;;6.10;68.90;;;;;;5037780;28;20017;-63
2023/02/09 10:56:23;;;;;;;43.50;27.65;;;6.50;69.50;;;;;;5046516;28;20330;-65
2023/02/09 10:58:50;;;;;;;45.10;28.50;;;6.40;68.10;;;;;;5039254;28;20112;-65
2023/02/09 11:01:22;;;;;;;44.33;27.77;;;6.30;69.70;;;;;;5056542;28;20028;-64
2023/02/09 11:04:02;;;;;;;45.30;27.65;;;6.30;69.50;;;;;;5041566;28;20017;-64
2023/02/09 11:06:46;;;;;;;42.53;27.70;;;6.70;68.50;;;;;;5048225;28;20441;-64
2023/02/09 11:09:19;;;;;;;43.47;28.25;;;6.90;68.50;;;;;;5045973;28;20032;-64
2023/02/09 11:11:45;;;;;;;46.97;29.75;;;6.90;68.70;;;;;;5057235;28;20108;-63
2023/02/09 11:14:15;;;;;;;48.22;27.73;;;6.90;69.50;;;;;;5048103;28;20101;-63
2023/02/09 11:16:49;;;;;;;38.30;25.88;;;6.50;68.80;;;;;;5045204;28;20021;-63
2023/02/09 11:19:24;;;;;;;39.65;24.70;;;6.60;70.00;;;;;;5057154;28;20412;-64
2023/02/09 11:21:58;;;;;;;43.33;25.40;;;7.00;68.50;;;;;;5056955;28;20017;-64
2023/02/09 11:24:29;;;;;;;36.67;23.17;;;7.10;66.80;;;;;;5054789;28;20025;-64
2023/02/09 11:27:17;;;;;;;43.92;25.27;;;7.10;67.10;;;;;;5056912;28;20037;-64
2023/02/09 11:29:57;;;;;;;38.72;23.33;;;7.00;67.80;;;;;;5055783;28;20017;-64
2023/02/09 11:32:30;;;;;;;37.38;23.67;;;6.90;67.20;;;;;;5055757;28;20017;-64
2023/02/09 11:35:12;;;;;;;43.00;26.50;;;6.50;68.30;;;;;;5056811;28;20036;-63
2023/02/09 11:37:52;;;;;;;38.40;23.15;;;6.70;68.80;;;;;;5046597;28;20286;-64
2023/02/09 11:40:36;;;;;;;41.25;23.42;;;6.40;69.00;;;;;;5036856;28;20029;-64
2023/02/09 11:43:09;;;;;;;36.67;22.98;;;6.60;69.20;;;;;;5036803;28;20022;-63
2023/02/09 11:45:45;;;;;;;36.67;23.23;;;6.40;69.00;;;;;;5035795;28;20025;-64
2023/02/09 11:48:13;;;;;;;37.95;21.98;;;5.90;70.20;;;;;;5035774;28;20120;-64
2023/02/09 11:50:55;;;;;;;37.35;23.17;;;5.80;71.00;;;;;;5036563;28;20032;-63
2023/02/09 11:53:25;;;;;;;35.08;22.00;;;5.70;70.80;;;;;;5036570;28;20452;-64
2023/02/09 11:56:03;;;;;;;38.15;22.67;;;5.80;70.70;;;;;;5046422;28;20024;-64
2023/02/09 11:58:48;;;;;;;37.45;21.88;;;6.00;70.70;;;;;;5056352;28;20104;-65
2023/02/09 12:01:44;;;;;;;35.65;22.40;;;6.30;70.70;;;;;;5055290;28;20379;-64
2023/02/09 12:04:25;;;;;;;35.67;22.00;;;5.80;71.20;;;;;;5056259;28;20025;-64
2023/02/09 12:06:58;;;;;;;51.70;30.50;;;5.70;71.90;;;;;;5055086;28;20060;-65
2023/02/09 12:09:24;;;;;;;41.25;23.63;;;5.80;71.60;;;;;;5056328;28;20047;-64
2023/02/09 12:12:05;;;;;;;44.17;24.75;;;5.80;70.60;;;;;;5056332;28;20041;-65
2023/02/09 12:15:10;;;;;;;36.53;22.33;;;6.00;71.40;;;;;;5054986;28;20025;-65
2023/02/09 12:17:36;;;;;;;39.30;22.10;;;6.10;70.20;;;;;;5056225;28;20104;-65
2023/02/09 12:20:02;;;;;;;39.08;22.02;;;5.90;70.90;;;;;;5056014;28;20056;-65
2023/02/09 12:22:34;;;;;;;39.40;23.23;;;5.90;71.00;;;;;;5056144;28;20029;-65
2023/02/09 12:25:19;;;;;;;36.58;21.83;;;5.90;70.30;;;;;;5054801;28;20045;-65
2023/02/09 12:28:09;;;;;;;34.50;21.23;;;5.50;71.80;;;;;;5056068;28;20502;-65
2023/02/09 12:30:41;;;;;;;36.40;19.60;;;5.70;71.10;;;;;;5054655;28;20409;-65
2023/02/09 12:33:29;;;;;;;34.15;20.83;;;5.50;70.90;;;;;;5055850;28;20074;-65
2023/02/09 12:35:59;;;;;;;35.40;19.95;;;5.40;72.10;;;;;;5054148;28;20029;-66
2023/02/09 12:38:49;;;;;;;34.88;20.45;;;5.40;71.70;;;;;;5055974;28;20025;-66
2023/02/09 12:41:16;;;;;;;36.65;20.10;;;5.30;71.70;;;;;;5055786;28;20405;-65
2023/02/09 12:43:44;;;;;;;33.60;19.55;;;5.30;72.60;;;;;;5055741;28;20313;-65
2023/02/09 12:46:09;;;;;;;33.13;19.77;;;5.70;71.70;;;;;;5053133;28;20044;-66
2023/02/09 12:49:08;;;;;;;31.10;19.23;;;6.00;70.90;;;;;;5055791;28;20033;-65
2023/02/09 12:51:59;;;;;;;33.28;19.45;;;6.00;69.70;;;;;;5052613;28;20038;-65
2023/02/09 12:54:48;;;;;;;33.78;20.10;;;6.00;71.00;;;;;;5052579;28;20041;-65
2023/02/09 12:57:13;;;;;;;35.35;19.77;;;6.20;70.20;;;;;;5035728;28;20173;-66
2023/02/09 12:59:40;;;;;;;32.38;19.40;;;6.40;70.10;;;;;;5034680;28;20056;-65